createdAt,value
2022-09-07T00:00:49.801Z,99819.38
2022-09-07T00:03:19.963Z,99820.47
2022-09-07T00:05:50.770Z,99818.31
2022-09-07T00:08:22.620Z,99821.28
2022-09-07T00:10:55.902Z,99831.66
2022-09-07T00:13:24.582Z,99827.91
2022-09-07T00:15:52.802Z,99832.00
2022-09-07T00:18:20.650Z,99837.97
2022-09-07T00:20:59.028Z,99838.78
2022-09-07T00:23:27.519Z,99840.16
2022-09-07T00:25:55.279Z,99831.16
2022-09-07T00:28:23.009Z,99831.44
2022-09-07T00:30:50.705Z,99821.59
2022-09-07T00:33:18.453Z,99825.41
2022-09-07T00:35:46.402Z,99834.72
2022-09-07T00:38:15.651Z,99826.03
2022-09-07T00:40:44.529Z,99832.84
2022-09-07T00:43:17.215Z,99835.06
2022-09-07T00:45:44.874Z,99836.09
2022-09-07T00:48:17.083Z,99826.31
2022-09-07T00:50:48.898Z,99818.94
2022-09-07T00:53:23.130Z,99822.47
2022-09-07T00:55:53.176Z,99814.59
2022-09-07T00:58:23.004Z,99816.84
2022-09-07T01:00:51.931Z,99808.16
2022-09-07T01:03:26.158Z,99810.59
2022-09-07T01:06:00.251Z,99814.41
2022-09-07T01:08:32.414Z,99819.91
2022-09-07T01:11:01.394Z,99811.25
2022-09-07T01:13:29.227Z,99826.22
2022-09-07T01:16:06.526Z,99846.97
2022-09-07T01:18:43.558Z,99842.34
2022-09-07T01:21:22.830Z,99826.78
2022-09-07T01:24:20.299Z,99832.50
2022-09-07T01:27:18.712Z,99835.22
2022-09-07T01:29:56.439Z,99823.25
2022-09-07T01:32:33.169Z,99825.41
2022-09-07T01:35:06.176Z,99819.09
2022-09-07T01:37:44.003Z,99807.13
2022-09-07T01:40:30.159Z,99804.03
2022-09-07T01:43:04.744Z,99793.97
2022-09-07T01:45:37.655Z,99789.97
2022-09-07T01:48:08.329Z,99791.28
2022-09-07T01:50:41.305Z,99771.34
2022-09-07T01:53:15.463Z,99764.47
2022-09-07T01:55:48.723Z,99766.59
2022-09-07T01:58:21.797Z,99771.25
2022-09-07T02:00:55.940Z,99782.69
2022-09-07T02:03:32.418Z,99783.44
2022-09-07T02:06:05.581Z,99790.53
2022-09-07T02:08:41.220Z,99802.97
2022-09-07T02:11:14.016Z,99816.75
2022-09-07T02:13:49.489Z,99832.31
2022-09-07T02:16:30.849Z,99846.47
2022-09-07T02:19:04.758Z,99868.50
2022-09-07T02:21:37.895Z,99871.22
2022-09-07T02:24:10.587Z,99870.28
2022-09-07T02:26:41.717Z,99887.56
2022-09-07T02:29:09.822Z,99873.56
2022-09-07T02:31:39.834Z,99863.81
2022-09-07T02:34:07.991Z,99866.28
2022-09-07T02:36:41.757Z,99879.31
2022-09-07T02:39:09.381Z,99887.56
2022-09-07T02:41:39.895Z,99920.75
2022-09-07T02:44:11.682Z,99948.38
2022-09-07T02:46:53.536Z,99929.00
2022-09-07T02:49:34.268Z,99935.50
2022-09-07T02:52:13.330Z,99917.25
2022-09-07T02:54:51.176Z,99895.75
2022-09-07T02:57:27.892Z,99890.31
2022-09-07T03:00:07.472Z,99897.66
2022-09-07T03:02:44.184Z,99888.38
2022-09-07T03:05:21.449Z,99860.28
2022-09-07T03:07:55.124Z,99853.41
2022-09-07T03:10:24.302Z,99841.91
2022-09-07T03:12:52.681Z,99844.44
2022-09-07T03:15:23.006Z,99845.72
2022-09-07T03:17:52.507Z,99831.09
2022-09-07T03:20:21.154Z,99826.25
2022-09-07T03:22:50.310Z,99811.59
2022-09-07T03:25:23.156Z,99806.63
2022-09-07T03:27:50.883Z,99805.38
2022-09-07T03:30:18.586Z,99810.47
2022-09-07T03:32:47.386Z,99804.97
2022-09-07T03:35:16.681Z,99790.19
2022-09-07T03:37:44.939Z,99792.34
2022-09-07T03:40:15.278Z,99783.31
2022-09-07T03:42:43.546Z,99784.06
2022-09-07T03:45:12.166Z,99784.38
2022-09-07T03:47:41.158Z,99771.06
2022-09-07T03:50:09.362Z,99775.38
2022-09-07T03:52:38.847Z,99774.28
2022-09-07T03:55:07.623Z,99769.59
2022-09-07T03:57:35.270Z,99773.72
2022-09-07T04:00:03.612Z,99783.50
2022-09-07T04:02:32.359Z,99788.16
2022-09-07T04:05:00.144Z,99795.56
2022-09-07T04:07:27.863Z,99794.75
2022-09-07T04:09:57.511Z,99808.69
2022-09-07T04:12:27.294Z,99806.47
2022-09-07T04:14:58.637Z,99797.38
2022-09-07T04:17:26.286Z,99793.09
2022-09-07T04:19:54.507Z,99784.72
2022-09-07T04:22:22.121Z,99794.03
2022-09-07T04:24:49.842Z,99793.94
2022-09-07T04:27:18.813Z,99795.59
2022-09-07T04:29:48.240Z,99788.56
2022-09-07T04:32:18.175Z,99788.69
2022-09-07T04:34:45.820Z,99798.34
2022-09-07T04:37:13.857Z,99787.50
2022-09-07T04:39:41.602Z,99793.69
2022-09-07T04:42:09.456Z,99800.41
2022-09-07T04:44:38.489Z,99792.28
2022-09-07T04:47:06.294Z,99792.53
2022-09-07T04:49:33.926Z,99795.19
2022-09-07T04:52:01.679Z,99797.91
2022-09-07T04:54:29.617Z,99795.81
2022-09-07T04:56:57.299Z,99796.13
2022-09-07T04:59:27.364Z,99794.16
2022-09-07T05:01:56.414Z,99789.81
2022-09-07T05:04:24.266Z,99803.78
2022-09-07T05:06:53.760Z,99794.03
2022-09-07T05:09:21.597Z,99815.41
2022-09-07T05:11:51.613Z,99816.78
2022-09-07T05:14:19.347Z,99818.56
2022-09-07T05:16:47.274Z,99827.13
2022-09-07T05:19:16.400Z,99824.06
2022-09-07T05:21:44.068Z,99830.75
2022-09-07T05:24:11.865Z,99825.16
2022-09-07T05:26:39.681Z,99817.13
2022-09-07T05:31:55.717Z,99825.41
2022-09-07T05:34:29.567Z,99826.91
2022-09-07T05:36:59.690Z,99827.47
2022-09-07T05:39:30.048Z,99828.19
2022-09-07T05:41:57.894Z,99843.59
2022-09-07T05:47:13.672Z,99828.00
2022-09-07T05:49:42.726Z,99835.97
2022-09-07T05:52:12.679Z,99834.19
2022-09-07T05:54:40.541Z,99834.56
2022-09-07T05:57:12.306Z,99829.47
2022-09-07T05:59:40.255Z,99835.25
2022-09-07T06:02:08.712Z,99823.16
2022-09-07T06:04:37.761Z,99839.25
2022-09-07T06:07:23.213Z,99838.88
2022-09-07T06:12:44.396Z,99837.50
2022-09-07T06:15:16.127Z,99827.41
2022-09-07T06:17:43.741Z,99821.38
2022-09-07T06:20:12.324Z,99823.41
2022-09-07T06:22:43.773Z,99822.59
2022-09-07T06:25:11.418Z,99822.69
2022-09-07T06:27:39.042Z,99814.38
2022-09-07T06:30:07.750Z,99810.78
2022-09-07T06:32:45.080Z,99815.44
2022-09-07T06:35:13.915Z,99815.97
2022-09-07T06:37:43.415Z,99819.66
2022-09-07T06:40:12.163Z,99818.94
2022-09-07T06:42:40.824Z,99822.09
2022-09-07T06:45:11.084Z,99823.97
2022-09-07T06:47:39.116Z,99818.00
2022-09-07T06:50:07.437Z,99825.09
2022-09-07T06:55:27.618Z,99811.22
2022-09-07T06:57:55.388Z,99811.56
2022-09-07T07:00:23.128Z,99813.00
2022-09-07T07:02:50.844Z,99817.50
2022-09-07T07:05:18.676Z,99827.97
2022-09-07T07:07:46.568Z,99819.66
2022-09-07T07:10:14.409Z,99819.50
2022-09-07T07:12:53.060Z,99819.22
2022-09-07T07:15:20.984Z,99802.59
2022-09-07T07:17:56.122Z,99811.41
2022-09-07T07:20:26.965Z,99810.06
2022-09-07T07:22:55.157Z,99821.47
2022-09-07T07:25:22.870Z,99812.47
2022-09-07T07:27:52.082Z,99824.84
2022-09-07T07:30:21.934Z,99815.63
2022-09-07T07:32:49.645Z,99831.56
2022-09-07T07:35:17.577Z,99820.66
2022-09-07T07:37:48.066Z,99826.41
2022-09-07T07:40:17.852Z,99831.41
2022-09-07T07:42:48.605Z,99829.69
2022-09-07T07:48:06.549Z,99839.47
2022-09-07T07:50:34.640Z,99854.13
2022-09-07T07:55:50.225Z,99858.63
2022-09-07T07:58:20.552Z,99847.59
2022-09-07T08:00:54.729Z,99855.03
2022-09-07T08:03:23.937Z,99856.34
2022-09-07T08:05:52.041Z,99862.50
2022-09-07T08:08:20.521Z,99862.06
2022-09-07T08:10:48.319Z,99866.78
2022-09-07T08:13:16.293Z,99866.41
2022-09-07T08:15:46.276Z,99862.13
2022-09-07T08:18:17.463Z,99871.44
2022-09-07T08:20:48.194Z,99866.88
2022-09-07T08:23:16.155Z,99875.16
2022-09-07T08:25:51.528Z,99872.94
2022-09-07T08:28:19.499Z,99879.34
2022-09-07T08:30:47.094Z,99873.56
2022-09-07T08:33:16.555Z,99881.44
2022-09-07T08:35:44.277Z,99886.88
2022-09-07T08:38:12.158Z,99895.47
2022-09-07T08:40:54.949Z,99888.13
2022-09-07T08:43:39.761Z,99894.59
2022-09-07T08:46:21.157Z,99906.31
2022-09-07T08:48:55.717Z,99900.84
2022-09-07T08:51:33.004Z,99905.59
2022-09-07T08:54:01.650Z,99899.53
2022-09-07T08:56:33.951Z,99910.59
2022-09-07T08:59:05.488Z,99913.06
2022-09-07T09:01:37.601Z,99914.19
2022-09-07T09:04:16.651Z,99922.88
2022-09-07T09:07:00.026Z,99916.06
2022-09-07T09:09:39.613Z,99914.91
2022-09-07T09:12:17.282Z,99920.84
2022-09-07T09:14:58.828Z,99915.09
2022-09-07T09:17:32.836Z,99916.41
2022-09-07T09:20:11.177Z,99915.84
2022-09-07T09:22:38.767Z,99907.66
2022-09-07T09:25:18.884Z,99912.38
2022-09-07T09:27:46.760Z,99904.94
2022-09-07T09:30:16.508Z,99914.59
2022-09-07T09:32:46.087Z,99904.22
2022-09-07T09:35:20.604Z,99907.72
2022-09-07T09:37:48.525Z,99903.91
2022-09-07T09:40:25.079Z,99901.97
2022-09-07T09:43:02.165Z,99900.97
2022-09-07T09:46:12.064Z,99903.22
2022-09-07T09:48:22.579Z,99899.59
2022-09-07T09:53:57.112Z,99888.31
2022-09-07T09:56:37.980Z,99889.06
2022-09-07T10:05:28.289Z,99871.28
2022-09-07T10:07:57.791Z,99868.13
2022-09-07T10:10:27.605Z,99868.34
2022-09-07T10:12:56.440Z,99867.94
2022-09-07T10:15:39.691Z,99867.63
2022-09-07T10:18:18.642Z,99862.53
2022-09-07T10:20:46.679Z,99859.69
2022-09-07T10:23:23.494Z,99854.59
2022-09-07T10:25:51.152Z,99849.56
2022-09-07T10:28:21.208Z,99856.47
2022-09-07T10:31:10.000Z,99840.25
2022-09-07T10:36:47.334Z,99842.38
2022-09-07T10:39:22.177Z,99838.97
2022-09-07T10:42:02.328Z,99831.78
2022-09-07T10:44:43.191Z,99826.47
2022-09-07T10:47:20.500Z,99832.16
2022-09-07T10:52:47.675Z,99824.41
2022-09-07T10:55:26.042Z,99832.66
2022-09-07T10:58:06.370Z,99824.22
2022-09-07T11:00:42.104Z,99818.97
2022-09-07T11:03:26.303Z,99820.00
2022-09-07T11:06:16.192Z,99822.28
2022-09-07T11:09:16.906Z,99815.81
2022-09-07T11:12:07.244Z,99815.44
2022-09-07T11:14:42.242Z,99815.13
2022-09-07T11:17:16.046Z,99806.78
2022-09-07T11:19:51.693Z,99803.56
2022-09-07T11:22:29.387Z,99815.81
2022-09-07T11:27:59.958Z,99792.00
2022-09-07T11:30:31.211Z,99798.66
2022-09-07T11:33:06.145Z,99790.44
2022-09-07T11:35:45.827Z,99801.34
2022-09-07T11:38:26.391Z,99803.22
2022-09-07T11:41:01.789Z,99792.25
2022-09-07T11:43:33.131Z,99793.84
2022-09-07T11:46:06.476Z,99776.00
2022-09-07T11:48:39.236Z,99786.34
2022-09-07T11:51:15.229Z,99781.94
2022-09-07T11:53:46.996Z,99775.03
2022-09-07T11:56:19.359Z,99769.56
2022-09-07T11:59:12.647Z,99780.94
2022-09-07T12:01:48.841Z,99772.06
2022-09-07T12:04:41.383Z,99761.84
2022-09-07T12:07:50.904Z,99765.00
2022-09-07T12:10:37.790Z,99762.56
2022-09-07T12:13:35.520Z,99758.59
2022-09-07T12:16:09.708Z,99752.16
2022-09-07T12:19:01.074Z,99739.53
2022-09-07T12:21:37.633Z,99738.97
2022-09-07T12:24:05.421Z,99732.31
2022-09-07T12:26:51.472Z,99724.94
2022-09-07T12:29:23.129Z,99725.28
2022-09-07T12:31:59.346Z,99733.53
2022-09-07T12:34:57.832Z,99731.31
2022-09-07T12:37:42.454Z,99730.50
2022-09-07T12:40:48.046Z,99719.59
2022-09-07T12:43:47.917Z,99726.28
2022-09-07T12:46:21.280Z,99724.47
2022-09-07T12:48:58.911Z,99725.44
2022-09-07T12:54:31.465Z,99711.38
2022-09-07T13:00:06.745Z,99717.28
2022-09-07T13:03:49.430Z,99715.81
2022-09-07T13:06:03.546Z,99729.69
2022-09-07T13:08:50.776Z,99730.78
2022-09-07T13:11:32.544Z,99722.84
2022-09-07T13:14:04.417Z,99730.50
2022-09-07T13:19:57.732Z,99750.03
2022-09-07T13:22:57.536Z,99748.34
2022-09-07T13:25:47.426Z,99764.66
2022-09-07T13:28:26.257Z,99764.75
2022-09-07T13:31:06.851Z,99752.25
2022-09-07T13:33:53.163Z,99769.25
2022-09-07T13:36:42.002Z,99769.91
2022-09-07T13:39:15.099Z,99778.09
2022-09-07T13:41:48.166Z,99767.13
2022-09-07T13:44:25.939Z,99774.56
2022-09-07T13:47:16.761Z,99778.75
2022-09-07T13:49:56.038Z,99770.94
2022-09-07T13:52:31.552Z,99772.03
2022-09-07T13:55:11.753Z,99771.50
2022-09-07T13:57:50.706Z,99781.06
2022-09-07T14:00:19.365Z,99767.31
2022-09-07T14:02:55.970Z,99764.16
2022-09-07T14:05:25.276Z,99765.06
2022-09-07T14:07:52.856Z,99760.72
2022-09-07T14:10:24.886Z,99752.75
2022-09-07T14:12:54.829Z,99756.22
2022-09-07T14:15:28.390Z,99751.34
2022-09-07T14:18:04.271Z,99748.41
2022-09-07T14:20:33.390Z,99740.53
2022-09-07T14:23:01.257Z,99741.75
2022-09-07T14:26:16.104Z,99732.56
2022-09-07T14:28:32.731Z,99740.91
2022-09-07T14:31:01.074Z,99746.00
2022-09-07T14:33:30.275Z,99748.31
2022-09-07T14:35:59.304Z,99746.09
2022-09-07T14:41:20.282Z,99739.53
2022-09-07T14:43:55.897Z,99736.59
2022-09-07T14:46:25.880Z,99739.41
2022-09-07T14:48:55.578Z,99737.19
2022-09-07T14:51:35.133Z,99725.31
2022-09-07T14:54:05.874Z,99721.75
2022-09-07T14:56:37.059Z,99721.84
2022-09-07T14:59:35.538Z,99716.38
2022-09-07T15:02:26.294Z,99719.44
2022-09-07T15:05:28.331Z,99701.63
2022-09-07T15:07:58.896Z,99707.13
2022-09-07T15:10:35.174Z,99702.91
2022-09-07T15:13:07.291Z,99696.34
2022-09-07T15:15:37.301Z,99696.34
2022-09-07T15:18:26.069Z,99697.59
2022-09-07T15:20:56.451Z,99693.59
2022-09-07T15:23:24.611Z,99695.69
2022-09-07T15:25:54.150Z,99690.34
2022-09-07T15:31:56.771Z,99671.41
2022-09-07T15:34:19.868Z,99664.19
2022-09-07T15:36:49.763Z,99659.31
2022-09-07T15:39:21.220Z,99662.38
2022-09-07T15:41:49.604Z,99665.00
2022-09-07T15:44:24.383Z,99666.34
2022-09-07T15:49:44.716Z,99669.22
2022-09-07T15:52:17.525Z,99663.06
2022-09-07T15:54:45.858Z,99664.13
2022-09-07T16:00:03.015Z,99649.03
2022-09-07T16:05:20.199Z,99644.19
2022-09-07T16:10:36.054Z,99648.47
2022-09-07T16:13:10.506Z,99646.84
2022-09-07T16:15:45.854Z,99647.34
2022-09-07T16:18:16.563Z,99659.94
2022-09-07T16:20:46.234Z,99654.31
2022-09-07T16:23:16.152Z,99648.06
2022-09-07T16:25:55.083Z,99644.41
2022-09-07T16:28:22.728Z,99644.13
2022-09-07T16:30:51.854Z,99647.69
2022-09-07T16:33:19.600Z,99649.63
2022-09-07T16:35:59.602Z,99643.44
2022-09-07T16:38:44.793Z,99650.84
2022-09-07T16:41:14.740Z,99650.84
2022-09-07T16:43:42.653Z,99652.00
2022-09-07T16:46:15.250Z,99651.94
2022-09-07T16:48:44.287Z,99649.16
2022-09-07T16:51:13.853Z,99648.13
2022-09-07T16:53:41.922Z,99644.66
2022-09-07T16:56:11.415Z,99644.66
2022-09-07T16:58:41.368Z,99634.38
2022-09-07T17:01:13.631Z,99630.88
2022-09-07T17:03:42.266Z,99636.53
2022-09-07T17:06:13.679Z,99628.75
2022-09-07T17:08:42.235Z,99637.84
2022-09-07T17:11:11.948Z,99635.03
2022-09-07T17:13:41.337Z,99630.75
2022-09-07T17:16:13.330Z,99639.34
2022-09-07T17:21:31.236Z,99634.38
2022-09-07T17:24:01.461Z,99637.25
2022-09-07T17:26:29.769Z,99639.69
2022-09-07T17:29:01.635Z,99643.59
2022-09-07T17:34:21.787Z,99638.19
2022-09-07T17:36:49.415Z,99631.72
2022-09-07T17:39:18.777Z,99627.72
2022-09-07T17:41:47.315Z,99629.41
2022-09-07T17:44:16.711Z,99634.72
2022-09-07T17:46:45.712Z,99638.06
2022-09-07T17:49:16.310Z,99639.97
2022-09-07T17:51:44.691Z,99645.47
2022-09-07T17:54:14.628Z,99640.28
2022-09-07T17:56:43.035Z,99640.28
2022-09-07T18:02:00.907Z,99641.47
2022-09-07T18:04:28.897Z,99635.75
2022-09-07T18:06:56.596Z,99642.63
2022-09-07T18:09:24.247Z,99642.41
2022-09-07T18:11:51.836Z,99644.38
2022-09-07T18:14:20.322Z,99643.66
2022-09-07T18:16:50.270Z,99650.81
2022-09-07T18:19:19.790Z,99651.03
2022-09-07T18:21:48.618Z,99648.91
2022-09-07T18:24:18.251Z,99647.44
2022-09-07T18:26:50.996Z,99635.41
2022-09-07T18:29:28.616Z,99626.31
2022-09-07T18:31:58.305Z,99632.59
2022-09-07T18:34:28.458Z,99636.44
2022-09-07T18:36:57.144Z,99643.31
2022-09-07T18:39:24.823Z,99644.19
2022-09-07T18:41:53.302Z,99638.50
2022-09-07T18:47:16.094Z,99648.50
2022-09-07T18:49:49.936Z,99646.94
2022-09-07T18:55:07.884Z,99646.69
2022-09-07T18:57:36.501Z,99651.91
2022-09-07T19:00:05.910Z,99646.94
2022-09-07T19:02:34.222Z,99642.50
2022-09-07T19:07:51.046Z,99643.03
2022-09-07T19:10:18.996Z,99629.31
2022-09-07T19:12:46.579Z,99622.97
2022-09-07T19:15:15.951Z,99634.97
2022-09-07T19:17:43.852Z,99645.63
2022-09-07T19:20:13.009Z,99646.47
2022-09-07T19:22:42.681Z,99647.59
2022-09-07T19:25:11.220Z,99653.97
2022-09-07T19:27:38.796Z,99646.94
2022-09-07T19:30:07.175Z,99650.72
2022-09-07T19:32:34.814Z,99645.56
2022-09-07T19:35:02.443Z,99640.41
2022-09-07T19:37:32.671Z,99627.81
2022-09-07T19:40:01.267Z,99631.38
2022-09-07T19:42:29.537Z,99627.34
2022-09-07T19:44:57.163Z,99626.56
2022-09-07T19:47:24.803Z,99622.22
2022-09-07T19:49:52.707Z,99613.78
2022-09-07T19:52:20.431Z,99620.06
2022-09-07T19:54:49.452Z,99617.69
2022-09-07T19:57:17.026Z,99613.41
2022-09-07T19:59:45.551Z,99606.97
2022-09-07T20:02:13.329Z,99611.13
2022-09-07T20:04:40.881Z,99618.59
2022-09-07T20:07:08.413Z,99615.91
2022-09-07T20:09:36.595Z,99609.41
2022-09-07T20:12:08.280Z,99604.56
2022-09-07T20:14:35.879Z,99604.56
2022-09-07T20:17:03.877Z,99600.78
2022-09-07T20:19:31.383Z,99596.44
2022-09-07T20:21:58.930Z,99584.72
2022-09-07T20:24:26.690Z,99590.44
2022-09-07T20:26:54.358Z,99584.19
2022-09-07T20:29:27.879Z,99593.19
2022-09-07T20:31:56.117Z,99583.38
2022-09-07T20:34:23.696Z,99580.94
2022-09-07T20:36:51.719Z,99576.34
2022-09-07T20:39:20.255Z,99573.34
2022-09-07T20:41:48.477Z,99574.72
2022-09-07T20:44:16.490Z,99566.53
2022-09-07T20:46:45.546Z,99574.47
2022-09-07T20:49:13.221Z,99585.41
2022-09-07T20:51:41.101Z,99579.69
2022-09-07T20:54:08.837Z,99572.59
2022-09-07T20:56:36.420Z,99578.88
2022-09-07T20:59:05.200Z,99570.97
2022-09-07T21:01:34.905Z,99573.44
2022-09-07T21:04:05.955Z,99577.81
2022-09-07T21:06:33.841Z,99578.88
2022-09-07T21:09:01.582Z,99585.72
2022-09-07T21:11:31.075Z,99582.19
2022-09-07T21:14:00.477Z,99580.81
2022-09-07T21:16:29.137Z,99578.63
2022-09-07T21:18:59.280Z,99587.63
2022-09-07T21:21:29.603Z,99595.50
2022-09-07T21:23:59.161Z,99604.50
2022-09-07T21:26:27.655Z,99597.13
2022-09-07T21:28:57.304Z,99591.44
2022-09-07T21:31:25.149Z,99592.81
2022-09-07T21:33:55.344Z,99600.44
2022-09-07T21:36:23.184Z,99605.34
2022-09-07T21:38:52.301Z,99594.72
2022-09-07T21:41:21.605Z,99587.09
2022-09-07T21:43:49.266Z,99585.72
2022-09-07T21:46:18.492Z,99589.81
2022-09-07T21:48:46.898Z,99581.66
2022-09-07T21:51:15.331Z,99581.09
2022-09-07T21:53:43.739Z,99574.25
2022-09-07T21:56:14.579Z,99576.16
2022-09-07T21:58:43.633Z,99571.53
2022-09-07T22:01:19.315Z,99565.78
2022-09-07T22:03:48.572Z,99567.69
2022-09-07T22:06:16.155Z,99572.03
2022-09-07T22:08:44.898Z,99558.97
2022-09-07T22:11:16.102Z,99564.16
2022-09-07T22:13:44.178Z,99560.91
2022-09-07T22:16:13.028Z,99570.69
2022-09-07T22:18:43.885Z,99566.59
2022-09-07T22:21:13.856Z,99567.94
2022-09-07T22:23:43.892Z,99569.56
2022-09-07T22:26:11.514Z,99569.03
2022-09-07T22:28:40.696Z,99576.88
2022-09-07T22:31:09.811Z,99579.09
2022-09-07T22:33:37.477Z,99569.28
2022-09-07T22:36:13.046Z,99566.25
2022-09-07T22:38:40.862Z,99563.25
2022-09-07T22:41:10.455Z,99551.56
2022-09-07T22:43:39.784Z,99551.28
2022-09-07T22:46:07.646Z,99545.56
2022-09-07T22:48:35.302Z,99541.47
2022-09-07T22:51:03.619Z,99531.66
2022-09-07T22:53:33.303Z,99527.31
2022-09-07T22:56:05.742Z,99519.44
2022-09-07T22:58:33.295Z,99511.25
2022-09-07T23:01:02.522Z,99499.56
2022-09-07T23:03:36.030Z,99494.34
2022-09-07T23:06:04.634Z,99490.50
2022-09-07T23:08:32.565Z,99489.16
2022-09-07T23:11:05.120Z,99482.66
2022-09-07T23:13:33.765Z,99481.63
2022-09-07T23:16:07.145Z,99477.25
2022-09-07T23:18:36.078Z,99476.19
2022-09-07T23:21:03.827Z,99471.53
2022-09-07T23:23:31.685Z,99468.03
2022-09-07T23:26:01.807Z,99471.81
2022-09-07T23:28:29.921Z,99465.03
2022-09-07T23:30:58.360Z,99469.91
2022-09-07T23:33:28.095Z,99460.06
2022-09-07T23:35:56.701Z,99457.59
2022-09-07T23:38:24.884Z,99451.34
2022-09-07T23:40:52.909Z,99448.09
2022-09-07T23:43:20.594Z,99454.09
2022-09-07T23:45:48.390Z,99459.00
2022-09-07T23:48:16.319Z,99451.09
2022-09-07T23:50:45.951Z,99454.41
2022-09-07T23:53:14.157Z,99450.28
2022-09-07T23:55:42.796Z,99454.88
2022-09-07T23:58:10.728Z,99463.06
